Time;durP1;ratioP1;P1;durP2;ratioP2;P2;SDS_P1;SDS_P2;PMS_P1;PMS_P2;Temp;Humidity;BMP_temperature;BMP_pressure;BME280_temperature;BME280_humidity;BME280_pressure;Samples;Min_cycle;Max_cycle;Signal;HPM_P1;HPM_P2
2023/04/16 00:01:38;;;;;;;1.23;0.70;;;12.70;61.90;;;;;;6269880;28;20033;-71
2023/04/16 00:04:39;;;;;;;1.27;0.80;;;12.70;61.80;;;;;;6268135;28;20109;-70
2023/04/16 00:07:40;;;;;;;1.77;1.25;;;12.70;61.80;;;;;;6269199;28;20021;-72
2023/04/16 00:10:41;;;;;;;4.22;1.80;;;12.70;61.80;;;;;;6272591;28;20508;-70
2023/04/16 00:13:42;;;;;;;4.55;1.63;;;12.70;61.90;;;;;;6294121;28;20046;-70
2023/04/16 00:16:43;;;;;;;2.47;1.20;;;12.70;61.90;;;;;;6294142;28;20044;-70
2023/04/16 00:19:44;;;;;;;2.80;1.55;;;12.70;62.00;;;;;;6292390;28;20170;-71
2023/04/16 00:22:45;;;;;;;2.58;1.50;;;12.70;62.20;;;;;;6292683;28;20082;-70
2023/04/16 00:25:46;;;;;;;3.53;1.50;;;12.60;62.30;;;;;;6292618;28;20021;-73
2023/04/16 00:28:47;;;;;;;3.72;1.42;;;12.60;62.60;;;;;;6293593;28;20024;-70
2023/04/16 00:31:51;;;;;;;3.00;1.52;;;12.50;62.80;;;;;;6293720;28;20112;-69
2023/04/16 00:34:52;;;;;;;3.15;1.60;;;12.50;63.00;;;;;;6291625;28;20521;-69
2023/04/16 00:37:53;;;;;;;2.15;1.42;;;12.50;63.20;;;;;;6291504;28;20040;-72
2023/04/16 00:40:54;;;;;;;3.42;1.75;;;12.50;63.30;;;;;;6287138;28;20037;-70
2023/04/16 00:43:54;;;;;;;1.90;1.50;;;12.50;63.50;;;;;;6267153;28;20025;-70
2023/04/16 00:46:56;;;;;;;1.85;1.38;;;12.50;63.70;;;;;;6267098;28;20033;-70
2023/04/16 00:49:57;;;;;;;3.40;1.33;;;12.50;63.70;;;;;;6267261;28;20032;-69
2023/04/16 00:52:58;;;;;;;1.80;1.20;;;12.50;63.70;;;;;;6269314;28;20032;-71
2023/04/16 00:56:02;;;;;;;1.63;1.27;;;12.40;63.60;;;;;;6267338;28;20036;-70
2023/04/16 00:59:04;;;;;;;2.38;1.52;;;12.40;63.60;;;;;;6266537;28;20465;-70
2023/04/16 01:02:05;;;;;;;2.10;1.30;;;12.40;63.50;;;;;;6266862;28;20036;-70
2023/04/16 01:05:08;;;;;;;1.95;1.45;;;12.50;63.50;;;;;;6268003;28;20029;-70
2023/04/16 01:08:21;;;;;;;2.35;1.50;;;12.50;63.50;;;;;;6268037;28;20029;-70
2023/04/16 01:11:22;;;;;;;1.38;1.05;;;12.50;63.40;;;;;;6277011;28;20036;-70
2023/04/16 01:14:23;;;;;;;2.08;1.00;;;12.50;63.30;;;;;;6275570;28;20149;-70
2023/04/16 01:17:24;;;;;;;1.63;0.77;;;12.50;63.20;;;;;;6267941;28;20025;-71
2023/04/16 01:20:25;;;;;;;2.17;0.85;;;12.60;63.00;;;;;;6266213;28;20065;-70
2023/04/16 01:23:26;;;;;;;1.80;1.10;;;12.60;62.60;;;;;;6266689;28;20029;-70
2023/04/16 01:26:27;;;;;;;1.08;0.90;;;12.70;62.10;;;;;;6266627;28;20107;-70
2023/04/16 01:29:28;;;;;;;1.38;0.90;;;12.80;61.70;;;;;;6290695;28;20028;-71
2023/04/16 01:32:31;;;;;;;1.77;1.00;;;12.90;61.50;;;;;;6290846;28;20115;-70
2023/04/16 01:35:32;;;;;;;2.88;1.42;;;13.00;61.30;;;;;;6290572;28;20025;-70
2023/04/16 01:38:33;;;;;;;2.13;1.20;;;13.10;61.10;;;;;;6288008;28;20058;-70
2023/04/16 01:41:35;;;;;;;2.47;1.42;;;13.10;61.00;;;;;;6290536;28;20365;-71
2023/04/16 01:44:36;;;;;;;2.25;1.52;;;13.10;61.10;;;;;;6292118;28;20103;-70
2023/04/16 01:47:37;;;;;;;3.72;1.70;;;13.10;61.10;;;;;;6290240;28;20032;-70
2023/04/16 01:50:37;;;;;;;2.15;1.60;;;13.10;61.20;;;;;;6292127;28;20024;-70
2023/04/16 01:53:38;;;;;;;6.55;1.42;;;13.10;61.40;;;;;;6290796;28;20389;-70
2023/04/16 01:56:39;;;;;;;2.28;1.77;;;13.00;61.30;;;;;;6289993;28;20027;-70
2023/04/16 01:59:40;;;;;;;2.88;1.90;;;13.00;61.60;;;;;;6289697;28;20438;-71
2023/04/16 02:02:41;;;;;;;2.95;1.83;;;13.00;61.80;;;;;;6290352;28;20073;-70
2023/04/16 02:05:42;;;;;;;7.18;2.13;;;12.90;61.90;;;;;;6292115;28;20024;-71
2023/04/16 02:08:43;;;;;;;2.03;1.65;;;12.90;61.90;;;;;;6290142;28;20176;-69
2023/04/16 02:11:44;;;;;;;2.15;1.50;;;12.90;62.00;;;;;;6291416;28;20060;-72
2023/04/16 02:14:45;;;;;;;2.28;1.40;;;12.90;62.20;;;;;;6290056;28;20024;-71
2023/04/16 02:17:52;;;;;;;5.10;1.95;;;12.90;62.20;;;;;;6289697;28;20354;-69
2023/04/16 02:20:56;;;;;;;2.20;1.70;;;12.90;62.20;;;;;;6292487;28;20445;-69
2023/04/16 02:23:57;;;;;;;3.13;1.83;;;12.90;62.30;;;;;;6289970;28;20094;-70
2023/04/16 02:27:01;;;;;;;3.08;2.05;;;12.80;62.30;;;;;;6290794;28;20039;-69
2023/04/16 02:30:03;;;;;;;2.97;1.90;;;12.80;62.40;;;;;;6290961;28;20563;-71
2023/04/16 02:33:09;;;;;;;2.13;1.30;;;12.80;62.50;;;;;;6287699;28;20025;-70
2023/04/16 02:36:11;;;;;;;2.15;1.73;;;12.70;62.50;;;;;;6266450;28;20049;-71
2023/04/16 02:39:12;;;;;;;1.73;1.35;;;12.70;62.60;;;;;;6282488;28;20075;-71
2023/04/16 02:42:13;;;;;;;4.07;1.90;;;12.70;62.70;;;;;;6289651;28;20426;-69
2023/04/16 02:45:14;;;;;;;2.53;1.85;;;12.70;62.70;;;;;;6289439;28;20071;-71
2023/04/16 02:48:15;;;;;;;2.53;1.60;;;12.80;62.60;;;;;;6290515;28;20698;-72
2023/04/16 02:51:16;;;;;;;2.15;1.50;;;12.80;62.70;;;;;;6289557;28;20028;-71
2023/04/16 02:54:17;;;;;;;2.67;1.83;;;12.70;62.60;;;;;;6290925;28;20017;-69
2023/04/16 02:57:17;;;;;;;5.70;1.83;;;12.70;62.60;;;;;;6290574;28;20108;-71
2023/04/16 03:00:18;;;;;;;4.07;1.88;;;12.70;62.80;;;;;;6290454;28;20111;-70
2023/04/16 03:03:20;;;;;;;2.47;1.65;;;12.60;62.60;;;;;;6289162;28;20086;-70
2023/04/16 03:06:21;;;;;;;3.08;1.85;;;12.70;62.80;;;;;;6288823;28;20056;-70
2023/04/16 03:09:22;;;;;;;3.42;1.65;;;12.60;62.90;;;;;;6292088;28;20333;-71
2023/04/16 03:12:23;;;;;;;2.50;1.67;;;12.60;62.90;;;;;;6294098;28;20032;-69
2023/04/16 03:15:25;;;;;;;6.22;1.98;;;12.60;63.00;;;;;;6295719;28;20095;-71
2023/04/16 03:18:26;;;;;;;3.47;1.85;;;12.60;63.00;;;;;;6295325;28;20071;-70
2023/04/16 03:21:26;;;;;;;2.53;1.90;;;12.70;63.10;;;;;;6294172;28;20123;-72
2023/04/16 03:24:28;;;;;;;5.60;2.17;;;12.70;63.00;;;;;;6293823;28;20483;-70
2023/04/16 03:27:29;;;;;;;3.30;2.20;;;12.60;62.90;;;;;;6293557;28;20021;-69
2023/04/16 03:30:30;;;;;;;5.75;2.85;;;12.70;63.00;;;;;;6293378;28;20425;-70
2023/04/16 03:33:31;;;;;;;4.88;2.60;;;12.70;63.10;;;;;;6293563;28;20099;-69
2023/04/16 03:36:32;;;;;;;4.75;2.35;;;12.70;63.20;;;;;;6294873;28;20617;-70
2023/04/16 03:39:33;;;;;;;2.70;1.88;;;12.70;63.30;;;;;;6293434;28;20104;-71
2023/04/16 03:42:34;;;;;;;4.32;2.30;;;12.70;63.20;;;;;;6293799;28;20052;-69
2023/04/16 03:45:42;;;;;;;7.07;2.33;;;12.80;63.20;;;;;;6285333;28;20033;-71
2023/04/16 03:48:44;;;;;;;5.15;2.53;;;12.80;63.20;;;;;;6268586;28;20056;-70
2023/04/16 03:51:46;;;;;;;2.90;2.05;;;12.80;63.20;;;;;;6269650;28;20127;-69
2023/04/16 03:54:47;;;;;;;2.83;1.90;;;12.80;63.20;;;;;;6271017;28;20025;-69
2023/04/16 03:58:01;;;;;;;3.08;1.85;;;12.90;63.10;;;;;;6284884;28;20028;-71
2023/04/16 04:01:03;;;;;;;4.70;3.08;;;12.90;63.00;;;;;;6292403;28;20111;-70
2023/04/16 04:04:04;;;;;;;3.10;2.45;;;12.80;62.80;;;;;;6289655;28;20050;-73
2023/04/16 04:07:05;;;;;;;4.18;2.60;;;12.90;63.00;;;;;;6271131;28;20032;-70
2023/04/16 04:10:07;;;;;;;3.92;2.70;;;12.90;63.10;;;;;;6268219;28;20029;-71
2023/04/16 04:13:12;;;;;;;4.35;2.67;;;12.80;63.30;;;;;;6292358;28;20123;-69
2023/04/16 04:16:13;;;;;;;4.88;3.17;;;12.80;63.30;;;;;;6276064;28;20478;-72
2023/04/16 04:19:14;;;;;;;6.63;3.50;;;12.80;63.30;;;;;;6291940;28;20058;-69
2023/04/16 04:22:15;;;;;;;5.68;3.20;;;12.80;63.40;;;;;;6292705;28;20077;-71
2023/04/16 04:25:17;;;;;;;5.53;3.47;;;12.80;64.30;;;;;;6293072;28;20040;-70
2023/04/16 04:28:17;;;;;;;5.10;3.22;;;12.80;63.50;;;;;;6283444;28;20055;-69
2023/04/16 04:31:18;;;;;;;7.13;3.45;;;12.80;63.50;;;;;;6292728;28;20025;-71
2023/04/16 04:34:19;;;;;;;7.68;3.25;;;12.70;63.50;;;;;;6292699;28;20089;-71
2023/04/16 04:37:21;;;;;;;7.32;3.65;;;12.70;63.70;;;;;;6291996;28;20483;-70
2023/04/16 04:40:22;;;;;;;6.07;3.72;;;12.70;63.70;;;;;;6292547;28;20035;-69
2023/04/16 04:43:23;;;;;;;4.93;3.38;;;12.70;63.70;;;;;;6292610;28;20025;-69
2023/04/16 04:46:24;;;;;;;4.90;3.13;;;12.70;63.70;;;;;;6292035;28;20413;-70
2023/04/16 04:49:25;;;;;;;5.72;3.20;;;12.70;63.60;;;;;;6291932;28;20031;-69
2023/04/16 04:52:26;;;;;;;6.57;4.35;;;12.70;63.50;;;;;;6292131;28;20097;-70
2023/04/16 04:55:27;;;;;;;5.80;3.78;;;12.70;63.50;;;;;;6292206;28;20100;-68
2023/04/16 04:58:28;;;;;;;6.95;4.05;;;12.70;63.50;;;;;;6291348;28;20551;-70
2023/04/16 05:01:29;;;;;;;4.45;3.50;;;12.70;63.50;;;;;;6292169;28;20077;-71
2023/04/16 05:04:30;;;;;;;4.72;3.25;;;12.70;63.50;;;;;;6292087;28;20135;-70
2023/04/16 05:07:31;;;;;;;3.90;2.75;;;12.70;63.40;;;;;;6293679;28;20074;-69
2023/04/16 05:10:32;;;;;;;7.80;3.05;;;12.70;63.40;;;;;;6293300;28;20031;-70
2023/04/16 05:13:32;;;;;;;2.80;2.10;;;12.70;63.40;;;;;;6293178;28;20150;-70
2023/04/16 05:16:36;;;;;;;4.60;2.53;;;12.70;63.30;;;;;;6291520;28;20039;-71
2023/04/16 05:19:37;;;;;;;3.35;2.17;;;12.70;63.20;;;;;;6292794;28;20040;-71
2023/04/16 05:22:38;;;;;;;4.32;2.00;;;12.70;63.20;;;;;;6293512;28;20080;-70
2023/04/16 05:25:39;;;;;;;3.13;2.05;;;12.70;63.20;;;;;;6294249;28;20016;-69
2023/04/16 05:28:40;;;;;;;11.05;2.03;;;12.70;63.10;;;;;;6292390;28;20020;-71
2023/04/16 05:31:41;;;;;;;2.47;1.70;;;12.80;63.10;;;;;;6290384;28;20349;-70
2023/04/16 05:34:42;;;;;;;3.20;1.95;;;12.80;63.00;;;;;;6290999;28;20098;-70
2023/04/16 05:37:42;;;;;;;3.28;2.15;;;12.80;63.70;;;;;;6290785;28;20025;-71
2023/04/16 05:40:43;;;;;;;3.17;1.73;;;12.90;62.80;;;;;;6292504;28;20046;-69
2023/04/16 05:43:44;;;;;;;2.60;2.00;;;12.90;62.80;;;;;;6290859;28;20072;-71
2023/04/16 05:46:45;;;;;;;3.67;1.73;;;13.00;62.60;;;;;;6290796;28;20056;-70
2023/04/16 05:49:46;;;;;;;5.22;1.90;;;13.10;62.50;;;;;;6292059;28;20030;-69
2023/04/16 05:52:47;;;;;;;3.10;1.95;;;13.10;62.30;;;;;;6292086;28;20024;-69
2023/04/16 05:55:47;;;;;;;2.97;2.22;;;13.10;62.20;;;;;;6291970;28;20036;-71
2023/04/16 05:58:48;;;;;;;4.18;1.95;;;13.20;62.20;;;;;;6291526;28;20024;-70
2023/04/16 06:01:49;;;;;;;2.60;1.70;;;13.20;62.00;;;;;;6292324;28;20429;-70
2023/04/16 06:04:50;;;;;;;2.28;1.67;;;13.30;61.90;;;;;;6292096;28;20365;-70
2023/04/16 06:07:51;;;;;;;2.55;1.55;;;13.30;61.70;;;;;;6290593;28;20027;-71
2023/04/16 06:10:52;;;;;;;6.13;1.88;;;13.40;61.70;;;;;;6290166;28;20031;-70
2023/04/16 06:13:53;;;;;;;2.85;1.98;;;13.40;61.50;;;;;;6291959;28;20032;-70
2023/04/16 06:16:54;;;;;;;4.10;2.72;;;13.50;62.20;;;;;;6291677;28;20071;-69
2023/04/16 06:19:54;;;;;;;7.53;3.90;;;13.50;61.20;;;;;;6274368;28;20021;-70
2023/04/16 06:22:57;;;;;;;5.55;2.67;;;13.60;61.10;;;;;;6266648;28;20485;-71
2023/04/16 06:25:57;;;;;;;4.30;2.35;;;13.60;60.80;;;;;;6267107;28;20560;-71
2023/04/16 06:28:58;;;;;;;4.43;2.60;;;13.60;60.60;;;;;;6285837;28;20025;-69
2023/04/16 06:32:00;;;;;;;8.35;2.75;;;13.60;60.60;;;;;;6291481;28;20414;-69
2023/04/16 06:35:00;;;;;;;6.82;3.00;;;13.70;60.60;;;;;;6291356;28;20032;-70
2023/04/16 06:38:01;;;;;;;4.10;2.58;;;13.80;60.40;;;;;;6291163;28;20061;-70
2023/04/16 06:41:02;;;;;;;4.25;2.92;;;13.90;60.20;;;;;;6291197;28;20326;-69
2023/04/16 06:44:03;;;;;;;5.30;3.03;;;13.80;59.80;;;;;;6290986;28;20142;-69
2023/04/16 06:47:04;;;;;;;4.63;2.92;;;13.80;59.80;;;;;;6289843;28;20042;-71
2023/04/16 06:50:06;;;;;;;8.20;3.17;;;13.90;59.90;;;;;;6291258;28;20102;-70
2023/04/16 06:53:07;;;;;;;8.65;3.45;;;14.00;59.80;;;;;;6291249;28;20034;-71
2023/04/16 06:56:08;;;;;;;4.85;3.00;;;14.00;59.60;;;;;;6292467;28;20035;-70
2023/04/16 06:59:08;;;;;;;7.43;3.85;;;14.10;59.50;;;;;;6289266;28;20142;-70
2023/04/16 07:02:09;;;;;;;6.57;4.25;;;14.10;59.40;;;;;;6291195;28;20036;-70
2023/04/16 07:05:10;;;;;;;7.18;3.75;;;14.10;59.30;;;;;;6290972;28;20037;-70
2023/04/16 07:08:11;;;;;;;4.70;2.67;;;14.10;59.20;;;;;;6291113;28;20362;-69
2023/04/16 07:11:12;;;;;;;5.45;3.05;;;14.10;58.90;;;;;;6290639;28;20054;-70
2023/04/16 07:14:13;;;;;;;3.60;2.60;;;14.20;59.00;;;;;;6290039;28;20469;-69
2023/04/16 07:17:14;;;;;;;4.55;2.55;;;14.20;58.90;;;;;;6266100;28;20064;-70
2023/04/16 07:20:15;;;;;;;5.10;2.47;;;14.30;59.20;;;;;;6264938;28;20099;-71
2023/04/16 07:23:16;;;;;;;3.85;2.22;;;14.40;59.00;;;;;;6266122;28;20118;-69
2023/04/16 07:26:16;;;;;;;3.30;2.20;;;14.50;58.90;;;;;;6264690;28;20032;-71
2023/04/16 07:29:17;;;;;;;4.47;2.63;;;14.50;58.70;;;;;;6286271;28;20060;-68
2023/04/16 07:32:21;;;;;;;4.25;2.30;;;14.60;58.50;;;;;;6289263;28;20040;-69
2023/04/16 07:35:22;;;;;;;5.20;3.20;;;14.70;58.40;;;;;;6290229;28;20032;-71
2023/04/16 07:38:23;;;;;;;5.40;3.80;;;14.60;58.00;;;;;;6290371;28;20055;-70
2023/04/16 07:41:24;;;;;;;6.80;4.22;;;14.60;57.70;;;;;;6290592;28;20104;-70
2023/04/16 07:44:25;;;;;;;5.50;3.28;;;14.50;57.70;;;;;;6289154;28;20021;-69
2023/04/16 07:47:26;;;;;;;8.77;4.03;;;14.50;57.70;;;;;;6289373;28;20037;-71
2023/04/16 07:50:27;;;;;;;6.68;4.53;;;14.50;57.70;;;;;;6290440;28;20111;-70
2023/04/16 07:53:27;;;;;;;10.63;4.38;;;14.50;57.60;;;;;;6290535;28;20046;-70
2023/04/16 07:56:28;;;;;;;9.98;4.28;;;14.50;57.50;;;;;;6294850;28;20036;-69
2023/04/16 07:59:29;;;;;;;7.78;4.20;;;14.50;57.50;;;;;;6294799;28;20485;-68
2023/04/16 08:02:30;;;;;;;6.30;4.00;;;14.60;57.50;;;;;;6294834;28;20235;-69
2023/04/16 08:05:31;;;;;;;7.10;4.00;;;14.70;57.30;;;;;;6294550;28;20388;-69
2023/04/16 08:08:32;;;;;;;7.38;4.55;;;14.70;57.20;;;;;;6294511;28;20349;-71
2023/04/16 08:11:33;;;;;;;6.95;4.20;;;14.80;56.90;;;;;;6294375;28;20020;-71
2023/04/16 08:14:33;;;;;;;6.00;4.30;;;14.80;56.50;;;;;;6294660;28;20115;-70
2023/04/16 08:17:36;;;;;;;9.18;4.15;;;14.90;56.20;;;;;;6293108;28;20032;-70
2023/04/16 08:20:37;;;;;;;6.40;4.25;;;14.90;56.10;;;;;;6294439;28;20021;-70
2023/04/16 08:23:38;;;;;;;6.65;3.83;;;14.90;55.80;;;;;;6294813;28;20024;-71
2023/04/16 08:26:40;;;;;;;8.00;4.35;;;14.90;56.00;;;;;;6295248;28;20421;-70
2023/04/16 08:29:40;;;;;;;8.10;4.38;;;14.90;55.50;;;;;;6294319;28;20032;-69
2023/04/16 08:32:42;;;;;;;10.23;4.68;;;14.90;55.20;;;;;;6293899;28;20031;-70
2023/04/16 08:35:43;;;;;;;6.47;4.07;;;14.90;55.20;;;;;;6293673;28;20020;-71
2023/04/16 08:38:44;;;;;;;6.85;4.32;;;14.90;55.20;;;;;;6292720;28;20051;-72
2023/04/16 08:41:45;;;;;;;5.75;3.88;;;15.00;55.10;;;;;;6294134;28;20593;-70
2023/04/16 08:44:48;;;;;;;7.50;4.28;;;15.20;54.90;;;;;;6292364;28;20028;-72
2023/04/16 08:47:51;;;;;;;7.95;3.90;;;15.30;54.80;;;;;;6293322;28;20028;-70
2023/04/16 08:50:53;;;;;;;7.93;3.92;;;15.50;54.50;;;;;;6293863;28;20036;-70
2023/04/16 08:54:03;;;;;;;6.93;4.53;;;15.60;54.00;;;;;;6293912;28;20426;-69
2023/04/16 08:57:09;;;;;;;8.50;4.32;;;15.70;53.80;;;;;;6293752;28;20041;-70
2023/04/16 09:00:10;;;;;;;6.57;3.50;;;15.70;53.40;;;;;;6293125;28;20128;-71
2023/04/16 09:03:11;;;;;;;5.65;3.42;;;15.90;53.40;;;;;;6293392;28;20029;-69
2023/04/16 09:06:14;;;;;;;12.82;3.80;;;16.00;53.00;;;;;;6292547;28;20035;-70
2023/04/16 09:09:17;;;;;;;5.90;4.07;;;16.00;52.70;;;;;;6293087;28;20484;-71
2023/04/16 09:12:18;;;;;;;7.57;3.78;;;16.00;52.40;;;;;;6292965;28;20024;-70
2023/04/16 09:15:20;;;;;;;8.02;3.72;;;16.00;52.80;;;;;;6293675;28;20377;-73
2023/04/16 09:18:20;;;;;;;5.60;3.53;;;15.80;52.30;;;;;;6293082;28;20032;-70
2023/04/16 09:21:32;;;;;;;7.22;3.25;;;15.80;52.30;;;;;;6261114;23;20056;-71
2023/04/16 09:24:37;;;;;;;4.85;3.13;;;15.80;52.20;;;;;;6219226;28;20137;-73
2023/04/16 09:27:38;;;;;;;6.18;3.42;;;15.80;52.20;;;;;;6218857;28;20049;-69
2023/04/16 09:30:39;;;;;;;5.55;3.10;;;15.70;52.00;;;;;;6218628;28;20030;-70
2023/04/16 09:33:42;;;;;;;6.45;3.30;;;15.80;52.10;;;;;;6218204;28;20482;-70
2023/04/16 09:36:43;;;;;;;7.13;3.17;;;15.70;51.90;;;;;;6218015;28;20018;-69
2023/04/16 09:39:55;;;;;;;4.90;3.00;;;15.70;52.00;;;;;;6330358;23;20045;-69
2023/04/16 09:42:59;;;;;;;5.43;3.28;;;15.80;51.70;;;;;;6240789;28;20095;-73
2023/04/16 09:46:03;;;;;;;5.15;3.88;;;15.70;51.60;;;;;;6216190;28;20029;-72
2023/04/16 09:49:14;;;;;;;5.45;3.22;;;15.70;52.20;;;;;;6215938;28;20054;-72
2023/04/16 09:52:17;;;;;;;6.57;3.40;;;15.80;51.80;;;;;;6218375;28;20246;-69
2023/04/16 09:55:25;;;;;;;9.68;3.70;;;15.90;51.50;;;;;;6218787;28;20382;-71
2023/04/16 09:58:27;;;;;;;6.72;3.70;;;15.90;51.20;;;;;;6218476;28;20581;-70
2023/04/16 10:01:30;;;;;;;8.98;3.45;;;16.00;51.00;;;;;;6236433;28;20041;-71
2023/04/16 10:04:45;;;;;;;6.43;3.78;;;16.10;50.60;;;;;;6242073;28;20017;-71
2023/04/16 10:07:47;;;;;;;5.22;3.55;;;16.10;50.50;;;;;;6241126;28;20451;-71
2023/04/16 10:10:48;;;;;;;6.40;2.72;;;16.00;50.50;;;;;;6245675;28;20605;-70
2023/04/16 10:13:49;;;;;;;7.35;2.38;;;16.00;50.20;;;;;;6266484;28;20028;-69
2023/04/16 10:16:51;;;;;;;6.88;2.80;;;15.90;50.20;;;;;;6266152;28;20060;-69
2023/04/16 10:19:54;;;;;;;8.40;2.83;;;15.90;50.10;;;;;;6257505;28;20029;-69
2023/04/16 10:22:56;;;;;;;7.13;2.85;;;16.00;49.80;;;;;;6240894;28;20037;-69
2023/04/16 10:25:58;;;;;;;6.75;2.50;;;16.00;49.60;;;;;;6241888;28;20449;-68
2023/04/16 10:29:00;;;;;;;4.85;3.00;;;16.00;49.20;;;;;;6239903;28;20037;-70
2023/04/16 10:32:02;;;;;;;7.57;2.80;;;15.90;49.20;;;;;;6241718;28;20075;-69
2023/04/16 10:35:04;;;;;;;4.43;2.47;;;15.80;49.00;;;;;;6241960;28;20059;-72
2023/04/16 10:38:26;;;;;;;3.50;2.22;;;15.70;49.00;;;;;;6249934;28;20041;-69
2023/04/16 10:41:30;;;;;;;7.10;3.03;;;15.60;48.90;;;;;;6264780;28;20028;-70
2023/04/16 10:44:32;;;;;;;3.92;2.47;;;15.50;49.00;;;;;;6266277;28;20061;-70
2023/04/16 10:47:39;;;;;;;3.28;2.30;;;15.60;49.10;;;;;;6264538;28;20092;-72
2023/04/16 10:50:40;;;;;;;5.68;2.78;;;15.60;48.90;;;;;;6264920;28;20094;-69
2023/04/16 10:53:41;;;;;;;3.42;2.38;;;15.60;48.80;;;;;;6266376;28;20029;-71
2023/04/16 10:56:44;;;;;;;5.68;2.53;;;15.60;48.90;;;;;;6255523;28;20509;-69
2023/04/16 10:59:47;;;;;;;3.92;2.30;;;15.60;48.90;;;;;;6241294;28;20108;-70
2023/04/16 11:02:53;;;;;;;5.20;2.63;;;15.60;48.80;;;;;;6240499;28;20164;-70
2023/04/16 11:06:13;;;;;;;3.75;2.55;;;15.70;48.70;;;;;;6241531;28;20116;-69
2023/04/16 11:09:44;;;;;;;4.88;2.78;;;15.80;48.50;;;;;;6241106;28;20037;-70
2023/04/16 11:12:49;;;;;;;8.55;2.92;;;15.90;48.20;;;;;;6261645;28;20105;-68
2023/04/16 11:15:50;;;;;;;3.17;2.17;;;16.00;47.70;;;;;;6266152;28;20037;-69
2023/04/16 11:18:51;;;;;;;3.85;2.17;;;16.10;47.50;;;;;;6265699;28;20078;-69
2023/04/16 11:21:52;;;;;;;13.00;2.33;;;16.20;47.50;;;;;;6265776;28;20449;-69
2023/04/16 11:24:55;;;;;;;3.15;2.22;;;16.30;47.40;;;;;;6265719;28;20035;-70
2023/04/16 11:27:59;;;;;;;4.32;2.00;;;16.40;47.30;;;;;;6254921;28;20040;-70
2023/04/16 11:31:11;;;;;;;4.78;2.42;;;16.30;47.10;;;;;;6246018;28;20025;-70
2023/04/16 11:34:12;;;;;;;4.38;2.45;;;16.40;47.20;;;;;;6244588;28;20030;-69
2023/04/16 11:37:13;;;;;;;3.83;2.17;;;16.30;47.20;;;;;;6246901;28;20351;-70
2023/04/16 11:40:14;;;;;;;3.63;1.73;;;16.30;47.10;;;;;;6271051;28;20056;-70
2023/04/16 11:43:15;;;;;;;3.42;2.35;;;16.40;47.00;;;;;;6271010;28;20024;-72
2023/04/16 11:46:16;;;;;;;5.30;2.20;;;16.50;46.70;;;;;;6270234;28;20128;-70
2023/04/16 11:49:26;;;;;;;4.05;1.73;;;16.70;46.30;;;;;;6269763;28;20048;-72
2023/04/16 11:52:32;;;;;;;3.55;2.20;;;16.70;46.00;;;;;;6261652;28;20504;-69
2023/04/16 11:55:43;;;;;;;6.22;1.92;;;16.80;45.70;;;;;;6243883;28;20510;-70
2023/04/16 11:58:44;;;;;;;6.72;2.45;;;16.90;45.60;;;;;;6245332;28;20025;-71
2023/04/16 12:01:56;;;;;;;3.53;2.33;;;16.90;45.30;;;;;;6243753;28;20029;-67
2023/04/16 12:04:57;;;;;;;3.00;2.22;;;16.90;45.50;;;;;;6243858;28;20313;-70
2023/04/16 12:07:59;;;;;;;3.53;2.25;;;16.80;45.60;;;;;;6245087;28;20025;-70
2023/04/16 12:11:00;;;;;;;3.15;2.30;;;16.70;45.70;;;;;;6250654;28;20078;-70
2023/04/16 12:14:11;;;;;;;4.35;1.92;;;16.60;45.90;;;;;;6268543;28;20510;-69
2023/04/16 12:17:17;;;;;;;5.28;2.70;;;16.50;45.90;;;;;;6269493;28;20109;-71
2023/04/16 12:20:18;;;;;;;3.88;2.25;;;16.40;46.10;;;;;;6269446;28;20053;-70
2023/04/16 12:23:27;;;;;;;3.83;1.90;;;16.30;46.20;;;;;;6267869;28;20089;-70
2023/04/16 12:26:36;;;;;;;4.50;2.47;;;16.20;46.40;;;;;;6262592;28;20018;-69
2023/04/16 12:29:37;;;;;;;3.67;2.13;;;16.10;46.70;;;;;;6244351;28;20560;-71
2023/04/16 12:32:39;;;;;;;3.28;2.28;;;16.00;46.80;;;;;;6244490;28;20489;-70
2023/04/16 12:35:42;;;;;;;2.78;1.92;;;16.00;46.70;;;;;;6244365;28;20411;-71
2023/04/16 12:38:43;;;;;;;3.97;2.20;;;15.90;46.90;;;;;;6257279;28;20064;-71
2023/04/16 12:41:44;;;;;;;3.83;2.08;;;15.90;47.30;;;;;;6268520;28;20044;-69
2023/04/16 12:44:45;;;;;;;3.08;2.30;;;15.90;47.90;;;;;;6267300;28;20151;-69
2023/04/16 12:47:46;;;;;;;3.38;2.30;;;15.90;47.20;;;;;;6267418;28;20061;-71
2023/04/16 12:50:47;;;;;;;3.10;1.98;;;16.00;47.10;;;;;;6244774;28;20025;-69
2023/04/16 12:53:49;;;;;;;11.75;2.08;;;15.90;47.00;;;;;;6241931;28;20049;-70
2023/04/16 12:56:49;;;;;;;5.15;2.58;;;16.00;46.90;;;;;;6243014;28;20459;-71
2023/04/16 12:59:50;;;;;;;2.83;2.10;;;16.00;46.90;;;;;;6241652;28;20101;-69
2023/04/16 13:02:51;;;;;;;4.22;2.00;;;16.10;46.90;;;;;;6243756;28;20040;-68
2023/04/16 13:05:52;;;;;;;5.15;1.95;;;16.20;46.80;;;;;;6243456;28;20350;-69
2023/04/16 13:08:53;;;;;;;2.72;1.77;;;16.60;46.20;;;;;;6243226;28;20025;-70
2023/04/16 13:11:54;;;;;;;3.35;2.35;;;16.70;45.80;;;;;;6256858;28;20076;-70
2023/04/16 13:14:55;;;;;;;5.40;2.20;;;16.60;45.90;;;;;;6268086;28;20469;-68
2023/04/16 13:17:56;;;;;;;3.20;2.03;;;16.70;46.00;;;;;;6266265;28;20032;-70
2023/04/16 13:20:57;;;;;;;3.97;2.13;;;16.70;46.00;;;;;;6267823;28;20040;-70
2023/04/16 13:23:58;;;;;;;3.15;1.85;;;16.90;45.80;;;;;;6250612;28;20028;-70
2023/04/16 13:26:59;;;;;;;5.10;2.25;;;16.90;45.50;;;;;;6242687;28;20739;-68
2023/04/16 13:30:00;;;;;;;3.40;2.58;;;16.70;45.50;;;;;;6242801;28;20120;-69
2023/04/16 13:33:01;;;;;;;3.30;1.70;;;16.70;45.70;;;;;;6242562;28;20026;-69
2023/04/16 13:36:02;;;;;;;4.18;2.50;;;16.70;45.90;;;;;;6241629;28;20032;-68
2023/04/16 13:39:09;;;;;;;4.70;2.65;;;16.60;46.20;;;;;;6242347;28;20323;-71
2023/04/16 13:42:10;;;;;;;5.65;2.65;;;16.50;46.40;;;;;;6243163;28;20061;-68
2023/04/16 13:45:10;;;;;;;8.73;2.65;;;16.50;46.60;;;;;;6243207;28;20430;-70
2023/04/16 13:48:11;;;;;;;4.82;2.40;;;16.40;46.80;;;;;;6241217;28;20056;-68
2023/04/16 13:51:14;;;;;;;4.38;2.38;;;16.40;46.90;;;;;;6240735;28;20747;-69
2023/04/16 13:54:15;;;;;;;3.78;2.45;;;16.40;47.10;;;;;;6241002;28;20037;-67
2023/04/16 13:57:16;;;;;;;4.32;2.60;;;16.30;47.50;;;;;;6240748;28;20516;-70
2023/04/16 14:00:18;;;;;;;5.60;2.42;;;16.40;47.30;;;;;;6242430;28;20022;-67
2023/04/16 14:03:19;;;;;;;3.67;2.55;;;16.40;47.30;;;;;;6242201;28;20042;-69
2023/04/16 14:06:20;;;;;;;10.43;3.15;;;16.50;47.30;;;;;;6243427;28;20041;-70
2023/04/16 14:09:21;;;;;;;5.55;2.83;;;16.50;47.20;;;;;;6241908;28;20044;-67
2023/04/16 14:12:22;;;;;;;8.38;2.90;;;16.50;47.30;;;;;;6260481;28;20111;-68
2023/04/16 14:15:26;;;;;;;5.10;2.97;;;16.50;47.30;;;;;;6267708;28;20060;-68
2023/04/16 14:18:27;;;;;;;7.80;2.90;;;16.60;47.50;;;;;;6263661;28;20128;-69
2023/04/16 14:21:28;;;;;;;5.85;3.35;;;16.60;47.60;;;;;;6241619;28;20144;-68
2023/04/16 14:24:29;;;;;;;6.72;3.22;;;16.70;47.70;;;;;;6243270;28;20025;-69
2023/04/16 14:27:30;;;;;;;10.40;3.42;;;16.70;47.70;;;;;;6241910;28;20110;-70
2023/04/16 14:30:31;;;;;;;5.10;3.45;;;16.70;47.70;;;;;;6240263;28;20377;-69
2023/04/16 14:33:32;;;;;;;7.68;4.28;;;16.70;47.80;;;;;;6242205;28;20033;-68
2023/04/16 14:36:33;;;;;;;7.47;3.40;;;16.60;47.80;;;;;;6241722;28;20025;-69
2023/04/16 14:39:35;;;;;;;6.82;3.25;;;16.50;47.90;;;;;;6260016;28;20116;-69
2023/04/16 14:42:36;;;;;;;21.92;4.05;;;16.40;48.10;;;;;;6225259;28;20064;-72
2023/04/16 14:45:37;;;;;;;7.95;4.30;;;16.40;48.40;;;;;;6239569;28;20102;-72
2023/04/16 14:48:38;;;;;;;7.70;3.03;;;16.30;48.70;;;;;;6241001;28;20377;-70
2023/04/16 14:51:40;;;;;;;10.35;4.65;;;16.30;48.90;;;;;;6239907;28;20037;-70
2023/04/16 14:54:41;;;;;;;7.90;3.50;;;16.30;48.80;;;;;;6239345;28;20132;-71
2023/04/16 14:57:42;;;;;;;6.45;3.72;;;16.30;48.60;;;;;;6240304;28;20040;-69
2023/04/16 15:00:43;;;;;;;8.13;4.18;;;16.20;48.90;;;;;;6240757;28;20033;-69
2023/04/16 15:03:44;;;;;;;8.40;4.22;;;16.20;48.90;;;;;;6239107;28;20026;-70
2023/04/16 15:06:45;;;;;;;10.95;4.70;;;16.20;49.10;;;;;;6240071;28;20034;-69
2023/04/16 15:09:45;;;;;;;10.20;4.63;;;16.20;49.30;;;;;;6238456;28;20026;-69
2023/04/16 15:12:46;;;;;;;8.13;4.90;;;16.20;49.40;;;;;;6227387;28;20041;-69
2023/04/16 15:15:48;;;;;;;10.10;4.68;;;16.10;49.40;;;;;;6227223;28;20109;-70
2023/04/16 15:18:49;;;;;;;10.18;4.43;;;15.90;49.70;;;;;;6240324;28;20032;-69
2023/04/16 15:21:50;;;;;;;11.05;4.68;;;15.80;50.60;;;;;;6240296;28;20068;-70
2023/04/16 15:24:52;;;;;;;6.00;3.90;;;15.80;50.20;;;;;;6240326;28;20079;-70
2023/04/16 15:27:53;;;;;;;10.40;4.93;;;15.70;50.40;;;;;;6240049;28;20030;-71
2023/04/16 15:30:56;;;;;;;11.82;4.03;;;15.60;50.50;;;;;;6238153;28;20084;-69
2023/04/16 15:33:58;;;;;;;8.80;4.53;;;15.60;50.70;;;;;;6239932;28;20033;-68
2023/04/16 15:36:59;;;;;;;7.20;3.92;;;15.60;51.50;;;;;;6239235;28;20131;-67
2023/04/16 15:40:00;;;;;;;10.63;4.53;;;15.50;51.10;;;;;;6241567;28;20025;-69
2023/04/16 15:43:01;;;;;;;7.90;4.32;;;15.60;51.20;;;;;;6240509;28;20064;-69
2023/04/16 15:46:02;;;;;;;9.07;4.72;;;15.50;51.30;;;;;;6221879;28;20026;-68